Antoine, Arkansas
Current Conditions -  °F | °C
As of 4:56 PM on Friday 31 Oct 2014 (Local Time) from KADF Reporting Station
Clear Clear  
Wind Chill: 17°   Ceiling: Unl
Heat Index: 17°   Visibility: 10mi
Dew Point:   Wind: 12mph
Humidity: 46%   Direction: 360°N
Pressure: 30.23"   Gusts: NA
Location:  34.04°N, 93.42°W
Report Text: KADF 312156Z AUTO 36010KT 10SM CLR 17/06 A3023 RMK AO2 T01720055 SLP250
Loading
Personal Weather Stations






























Interactive Weather Map
Tropical Storm Tracking
New forecast layout! Learn more

10-Day Weather Forecast

Advertisements
Track Severe Weather on mobile